Santa Vitoria, Brazil
Current Conditions -  °F | °C
As of 8:00 AM on Monday 20 Oct 2014 (Local Time) from SBUL Reporting Station
Scattered Clouds Scattered Clouds  
Wind Chill: 70°   Ceiling: Unl
Heat Index: 70°   Visibility: 4mi
Dew Point: 61°   Wind: 2mph
Humidity: 73%   Direction: 190°S
Pressure: 30.09"   Gusts: NA
Location:  18.84°S, 50.12°W
Report Text: SBUL 201100Z 19002KT 6000 FEW040 FEW045TCU SCT100 21/16 Q1019
Loading
Personal Weather Stations






























Interactive Weather Map
Tropical Storm Tracking
New forecast layout! Learn more

10-Day Weather Forecast

Advertisements
Track Severe Weather on mobile